Time;durP1;ratioP1;P1;durP2;ratioP2;P2;SDS_P1;SDS_P2;PMS_P1;PMS_P2;Temp;Humidity;BMP_temperature;BMP_pressure;BME280_temperature;BME280_humidity;BME280_pressure;Samples;Min_cycle;Max_cycle;Signal;HPM_P1;HPM_P2
2024/02/13 00:00:10;;;;;;;8.40;3.90;;;4.20;99.90;;;7.80;100.00;100376.88;5030274;28;20393;-78
2024/02/13 00:02:40;;;;;;;8.00;4.78;;;4.20;99.90;;;7.76;100.00;100383.75;5030589;28;20048;-78
2024/02/13 00:05:08;;;;;;;7.65;3.42;;;4.20;99.90;;;7.86;100.00;100395.06;5008556;28;20080;-77
2024/02/13 00:07:38;;;;;;;6.57;3.45;;;4.10;99.90;;;7.82;100.00;100401.94;5028938;28;20046;-78
2024/02/13 00:10:11;;;;;;;7.20;4.03;;;4.10;99.90;;;7.76;100.00;100410.91;5026643;28;20052;-78
2024/02/13 00:12:40;;;;;;;8.98;4.40;;;4.10;99.90;;;7.70;100.00;100415.28;5028969;28;20113;-78
2024/02/13 00:15:10;;;;;;;8.60;4.75;;;4.20;99.90;;;7.82;100.00;100417.38;5030882;28;20041;-77
2024/02/13 00:17:36;;;;;;;10.80;5.85;;;4.20;99.90;;;7.84;100.00;100420.75;5029515;28;20034;-78
2024/02/13 00:20:08;;;;;;;11.90;5.95;;;4.30;99.90;;;7.77;100.00;100415.31;5027959;28;20041;-78
2024/02/13 00:22:35;;;;;;;10.82;5.10;;;4.30;99.90;;;7.92;100.00;100415.94;5025454;28;20061;-77
2024/02/13 00:25:01;;;;;;;15.20;7.40;;;4.20;99.90;;;8.01;100.00;100418.50;5029824;28;20053;-78
2024/02/13 00:27:32;;;;;;;13.57;7.10;;;4.20;99.90;;;7.90;100.00;100420.75;5030269;28;20116;-78
2024/02/13 00:29:59;;;;;;;11.90;6.80;;;4.30;99.90;;;7.97;100.00;100425.41;5006188;28;20470;-78
2024/02/13 00:32:24;;;;;;;15.50;7.05;;;4.30;99.90;;;8.12;100.00;100426.03;5030165;28;20708;-78
2024/02/13 00:34:50;;;;;;;16.40;8.38;;;4.40;99.90;;;8.08;100.00;100430.22;5030177;28;20496;-78
2024/02/13 00:37:16;;;;;;;14.48;7.85;;;4.50;99.90;;;8.32;100.00;100430.69;5029963;28;20037;-78
2024/02/13 00:39:43;;;;;;;15.25;8.00;;;4.60;99.90;;;8.58;100.00;100437.22;5029839;28;20441;-78
2024/02/13 00:42:09;;;;;;;12.73;7.73;;;4.60;99.90;;;8.54;100.00;100430.53;5011402;28;20477;-78
2024/02/13 00:44:38;;;;;;;18.75;9.27;;;4.60;99.90;;;8.46;100.00;100429.63;5030186;28;20303;-78
2024/02/13 00:47:05;;;;;;;16.08;9.07;;;4.60;99.90;;;8.56;100.00;100436.59;5028990;28;20033;-78
2024/02/13 00:49:31;;;;;;;17.33;9.18;;;4.60;99.90;;;8.56;100.00;100450.19;5029983;28;20033;-78
2024/02/13 00:51:57;;;;;;;18.00;8.95;;;4.70;99.90;;;8.68;100.00;100450.41;5029615;28;20408;-78
2024/02/13 00:54:24;;;;;;;15.30;8.77;;;4.70;99.90;;;8.61;100.00;100458.53;5012475;28;20118;-78
2024/02/13 00:56:52;;;;;;;15.50;9.10;;;4.80;99.90;;;8.72;100.00;100460.63;5029256;28;20042;-77
2024/02/13 00:59:19;;;;;;;19.85;9.75;;;4.90;99.90;;;8.72;100.00;100463.34;5029867;28;20069;-77
2024/02/13 01:01:45;;;;;;;21.05;10.32;;;4.90;99.90;;;8.62;100.00;100458.34;5045284;28;20037;-77
2024/02/13 01:04:11;;;;;;;16.77;9.48;;;5.00;99.90;;;8.62;100.00;100466.50;5011713;28;20050;-77
2024/02/13 01:06:37;;;;;;;18.17;9.45;;;5.00;99.90;;;8.86;100.00;100461.47;5006046;28;20108;-77
2024/02/13 01:09:07;;;;;;;18.67;9.73;;;5.10;99.90;;;8.67;100.00;100468.59;4993319;28;20053;-77
2024/02/13 01:11:35;;;;;;;18.20;10.27;;;5.00;99.90;;;8.75;100.00;100473.84;4992132;28;20053;-77
2024/02/13 01:14:02;;;;;;;16.75;9.57;;;5.00;99.90;;;8.76;100.00;100475.50;4990411;28;20040;-77
2024/02/13 01:16:28;;;;;;;15.75;9.23;;;5.10;99.90;;;8.63;100.00;100479.06;4993180;28;20053;-76
2024/02/13 01:18:56;;;;;;;17.58;9.30;;;5.10;99.90;;;8.58;100.00;100483.44;5006239;28;20121;-77
2024/02/13 01:21:22;;;;;;;18.25;8.88;;;5.10;99.90;;;8.65;100.00;100487.00;4992054;28;20050;-77
2024/02/13 01:23:51;;;;;;;20.60;9.75;;;5.10;99.90;;;8.73;100.00;100492.22;4990089;28;20038;-78
2024/02/13 01:26:19;;;;;;;18.15;8.85;;;5.10;99.90;;;8.97;100.00;100498.09;4986568;28;20046;-77
2024/02/13 01:28:46;;;;;;;17.85;8.95;;;5.10;99.90;;;9.05;100.00;100497.91;5002621;28;20062;-77
2024/02/13 01:31:13;;;;;;;15.57;9.18;;;5.20;99.90;;;8.80;100.00;100503.13;4991434;28;20042;-77
2024/02/13 01:33:42;;;;;;;16.20;8.88;;;5.20;99.90;;;8.96;100.00;100504.56;5012332;28;20515;-77
2024/02/13 01:36:08;;;;;;;20.45;9.80;;;5.30;99.90;;;8.88;100.00;100502.91;4979152;28;20106;-77
2024/02/13 01:38:34;;;;;;;21.17;9.05;;;5.40;99.90;;;9.02;100.00;100513.78;4988926;28;20530;-77
2024/02/13 01:41:00;;;;;;;18.55;9.02;;;5.40;99.90;;;9.09;100.00;100511.91;4985263;28;20044;-77
2024/02/13 01:43:29;;;;;;;19.55;8.55;;;5.50;99.90;;;8.77;100.00;100512.53;4990838;28;20077;-77
2024/02/13 01:45:56;;;;;;;17.05;8.43;;;5.50;99.90;;;9.02;100.00;100511.94;4989742;28;20081;-76
2024/02/13 01:48:25;;;;;;;17.73;8.27;;;5.50;99.90;;;9.00;100.00;100524.88;4991586;28;20049;-77
2024/02/13 01:50:55;;;;;;;20.75;9.27;;;5.50;99.90;;;8.80;100.00;100513.16;4991274;28;20046;-76
2024/02/13 01:53:22;;;;;;;18.65;8.85;;;5.60;99.90;;;9.12;100.00;100522.34;4993070;28;20072;-77
2024/02/13 01:55:52;;;;;;;16.33;8.67;;;5.50;99.90;;;9.02;100.00;100521.97;4994026;28;20034;-77
2024/02/13 01:58:22;;;;;;;17.08;8.25;;;5.60;99.90;;;9.17;100.00;100530.75;4993645;28;20042;-77
2024/02/13 02:00:58;;;;;;;13.32;7.70;;;5.60;99.90;;;8.85;100.00;100535.16;4993203;28;20085;-77
2024/02/13 02:03:30;;;;;;;18.65;8.35;;;5.60;99.90;;;8.86;100.00;100540.34;5007729;28;20077;-77
2024/02/13 02:06:01;;;;;;;18.13;8.07;;;5.60;99.90;;;8.91;100.00;100527.00;5032773;28;20127;-77
2024/02/13 02:08:27;;;;;;;19.70;8.60;;;5.60;99.90;;;9.13;100.00;100539.53;5032207;28;20052;-77
2024/02/13 02:10:57;;;;;;;15.65;7.65;;;5.60;99.90;;;9.17;100.00;100538.91;5032149;28;20041;-77
2024/02/13 02:13:25;;;;;;;11.50;7.10;;;5.50;99.90;;;9.12;100.00;100533.25;5032817;28;20034;-78
2024/02/13 02:15:51;;;;;;;14.65;7.63;;;5.50;99.90;;;8.57;100.00;100536.97;5032722;28;20564;-77
2024/02/13 02:18:17;;;;;;;18.25;7.75;;;5.40;99.90;;;8.66;100.00;100537.63;4995343;28;20161;-77
2024/02/13 02:20:43;;;;;;;14.77;7.40;;;5.30;99.90;;;8.86;100.00;100540.34;5027913;28;20163;-77
2024/02/13 02:23:09;;;;;;;14.18;7.35;;;5.20;99.90;;;8.73;100.00;100529.47;5032381;28;20537;-77
2024/02/13 02:25:35;;;;;;;13.32;6.78;;;5.20;99.90;;;8.57;100.00;100542.41;5027759;28;20042;-77
2024/02/13 02:28:00;;;;;;;13.90;5.78;;;5.10;99.90;;;8.57;100.00;100544.31;5032211;28;20485;-78
2024/02/13 02:30:26;;;;;;;11.95;5.80;;;5.00;99.90;;;8.30;100.00;100542.31;5030869;28;20033;-77
2024/02/13 02:32:52;;;;;;;10.88;5.55;;;4.90;99.90;;;8.57;100.00;100538.88;5031044;28;20034;-78
2024/02/13 02:35:18;;;;;;;13.70;4.57;;;4.80;99.90;;;8.52;100.00;100552.25;5027174;28;20702;-77
2024/02/13 02:37:47;;;;;;;11.57;4.20;;;4.80;99.90;;;8.54;100.00;100551.00;5047562;28;20107;-77
2024/02/13 02:40:18;;;;;;;11.13;4.45;;;4.80;99.90;;;8.67;100.00;100552.91;5032103;28;20034;-78
2024/02/13 02:42:47;;;;;;;13.38;4.35;;;4.80;99.90;;;8.46;100.00;100557.41;5031384;28;20038;-77
2024/02/13 02:45:14;;;;;;;9.93;4.13;;;4.80;99.90;;;8.51;100.00;100559.56;5032281;28;20042;-78
2024/02/13 02:47:40;;;;;;;7.28;3.97;;;4.90;99.90;;;8.51;100.00;100558.72;5031636;28;20041;-77
2024/02/13 02:50:06;;;;;;;10.10;3.92;;;4.90;99.90;;;8.52;100.00;100561.22;5031661;28;20379;-78
2024/02/13 02:52:31;;;;;;;9.27;4.10;;;4.80;99.90;;;8.37;100.00;100574.13;5031472;28;20044;-78
2024/02/13 02:54:57;;;;;;;10.63;4.53;;;4.90;99.90;;;8.41;100.00;100569.97;5031885;28;20033;-77
2024/02/13 02:57:23;;;;;;;11.30;4.32;;;4.80;99.90;;;8.48;100.00;100571.63;5029844;28;20042;-77
2024/02/13 02:59:49;;;;;;;11.95;4.60;;;4.80;99.90;;;8.57;100.00;100572.31;5012571;28;20029;-77
2024/02/13 03:02:14;;;;;;;12.68;5.45;;;4.70;99.90;;;8.32;100.00;100566.59;5010439;28;20440;-77
2024/02/13 03:04:40;;;;;;;13.57;5.03;;;4.70;99.90;;;8.15;100.00;100587.84;5029474;28;20053;-77
2024/02/13 03:07:08;;;;;;;12.13;5.65;;;4.80;99.90;;;8.23;100.00;100587.66;5007553;28;20100;-77
2024/02/13 03:09:33;;;;;;;11.50;5.20;;;4.90;99.90;;;8.38;100.00;100584.78;5031823;28;20113;-77
2024/02/13 03:12:00;;;;;;;10.65;4.60;;;4.90;99.90;;;8.37;100.00;100585.84;5031336;28;20046;-78
2024/02/13 03:14:26;;;;;;;12.77;5.50;;;4.90;99.90;;;8.34;100.00;100581.63;5030563;28;20044;-77
2024/02/13 03:16:51;;;;;;;12.75;5.45;;;4.90;99.90;;;8.38;100.00;100592.13;5031034;28;20423;-77
2024/02/13 03:19:17;;;;;;;12.57;5.68;;;4.90;99.90;;;8.29;100.00;100599.63;5031367;28;20033;-77
2024/02/13 03:21:43;;;;;;;13.18;5.32;;;4.90;99.90;;;8.28;100.00;100601.47;5029833;28;20115;-77
2024/02/13 03:24:08;;;;;;;11.77;5.53;;;4.90;99.90;;;8.46;100.00;100592.75;5029995;28;20044;-77
2024/02/13 03:26:34;;;;;;;8.43;4.90;;;4.90;99.90;;;8.41;100.00;100597.97;5031235;28;20065;-77
2024/02/13 03:29:02;;;;;;;11.43;5.18;;;4.90;99.90;;;8.31;100.00;100600.25;5031313;28;20029;-77
2024/02/13 03:31:28;;;;;;;11.10;5.03;;;4.90;99.90;;;8.43;100.00;100605.94;5030947;28;20038;-78
2024/02/13 03:33:53;;;;;;;13.35;5.22;;;4.90;99.90;;;8.51;100.00;100613.13;5030375;28;20040;-77
2024/02/13 03:36:19;;;;;;;13.88;5.15;;;5.00;99.90;;;8.69;100.00;100615.25;5030118;28;20038;-77
2024/02/13 03:38:49;;;;;;;12.57;5.18;;;5.00;99.90;;;8.65;100.00;100617.53;5030647;28;20033;-78
2024/02/13 03:41:16;;;;;;;9.15;4.80;;;5.00;99.90;;;8.51;100.00;100613.13;5030142;28;20037;-77
2024/02/13 03:43:43;;;;;;;8.75;5.00;;;4.90;99.90;;;8.34;100.00;100619.69;5026141;28;20030;-77
2024/02/13 03:46:10;;;;;;;11.10;5.57;;;4.90;99.90;;;8.20;100.00;100618.78;5043841;28;20037;-78
2024/02/13 03:48:36;;;;;;;11.27;5.53;;;4.90;99.90;;;8.25;100.00;100631.78;5031611;28;20116;-78
2024/02/13 03:51:03;;;;;;;12.93;6.05;;;4.80;99.90;;;8.16;100.00;100627.56;5010549;28;20045;-77
2024/02/13 03:53:29;;;;;;;9.50;5.30;;;4.80;99.90;;;8.15;100.00;100626.72;5030511;28;20029;-77
2024/02/13 03:55:55;;;;;;;15.48;5.72;;;4.70;99.90;;;7.87;100.00;100630.31;5030416;28;20030;-77
2024/02/13 03:58:21;;;;;;;10.32;5.38;;;4.70;99.90;;;7.89;100.00;100635.56;5030457;28;20091;-77
2024/02/13 04:00:47;;;;;;;12.40;5.38;;;4.60;99.90;;;7.82;100.00;100621.94;5012439;28;20033;-77
2024/02/13 04:03:12;;;;;;;13.82;5.65;;;4.60;99.90;;;7.73;100.00;100628.56;5012474;28;20123;-77
2024/02/13 04:05:39;;;;;;;14.15;5.50;;;4.50;99.90;;;7.79;100.00;100635.91;5029442;28;20436;-77
2024/02/13 04:08:08;;;;;;;11.32;5.57;;;4.50;99.90;;;7.81;100.00;100624.84;5028440;28;20481;-77
2024/02/13 04:10:34;;;;;;;12.70;5.65;;;4.50;99.90;;;7.84;100.00;100624.47;5026273;28;20036;-77
2024/02/13 04:13:00;;;;;;;13.30;6.22;;;4.50;99.90;;;7.82;100.00;100631.94;5029547;28;20162;-77
2024/02/13 04:15:26;;;;;;;11.80;6.13;;;4.40;99.90;;;7.83;100.00;100630.94;5029424;28;20056;-77
2024/02/13 04:17:51;;;;;;;11.73;6.40;;;4.50;99.90;;;7.73;100.00;100631.28;5012689;28;20074;-77
2024/02/13 04:20:17;;;;;;;9.73;5.35;;;4.50;99.90;;;7.74;100.00;100632.97;5011723;28;20076;-77
2024/02/13 04:22:44;;;;;;;10.70;6.03;;;4.40;99.90;;;7.80;100.00;100640.31;5029208;28;20091;-77
2024/02/13 04:25:10;;;;;;;13.35;6.55;;;4.30;99.90;;;7.54;100.00;100636.38;5030519;28;20052;-77
2024/02/13 04:27:39;;;;;;;11.85;6.55;;;4.30;99.90;;;7.69;100.00;100629.97;5029428;28;20044;-78
2024/02/13 04:30:12;;;;;;;12.55;5.80;;;4.30;99.90;;;7.66;100.00;100631.25;5024991;28;20381;-78
2024/02/13 04:32:39;;;;;;;10.43;5.53;;;4.20;99.90;;;7.47;100.00;100621.91;5003027;28;20503;-78
2024/02/13 04:35:10;;;;;;;13.32;6.22;;;4.20;99.90;;;7.52;100.00;100619.44;5028228;28;20060;-77
2024/02/13 04:37:36;;;;;;;11.27;6.28;;;4.10;99.90;;;7.32;100.00;100622.81;5027543;28;20041;-77
2024/02/13 04:40:02;;;;;;;13.35;6.40;;;4.10;99.90;;;7.32;100.00;100616.56;5020788;28;20140;-78
2024/02/13 04:42:36;;;;;;;13.13;6.43;;;4.10;99.90;;;7.40;100.00;100624.56;5024973;28;20557;-77
2024/02/13 04:45:03;;;;;;;10.65;5.80;;;4.10;99.90;;;7.39;100.00;100616.59;5025381;28;20041;-77
2024/02/13 04:47:30;;;;;;;11.82;5.68;;;4.10;99.90;;;7.41;100.00;100625.38;5021621;28;20713;-78
2024/02/13 04:49:58;;;;;;;12.77;6.13;;;4.00;99.90;;;7.36;100.00;100634.13;5010253;28;20096;-78
2024/02/13 04:52:24;;;;;;;12.98;5.57;;;4.00;99.90;;;7.19;100.00;100628.97;5028149;28;20392;-77
2024/02/13 04:54:51;;;;;;;11.73;5.32;;;4.10;99.90;;;7.12;100.00;100621.81;5026954;28;20041;-77
2024/02/13 04:57:17;;;;;;;12.63;6.07;;;4.00;99.90;;;7.12;100.00;100629.94;5027390;28;20060;-77
2024/02/13 04:59:49;;;;;;;11.68;5.40;;;4.00;99.90;;;7.16;100.00;100636.66;5021279;28;20099;-77
2024/02/13 05:02:24;;;;;;;14.15;6.43;;;4.00;99.90;;;7.29;100.00;100639.50;5003984;28;20046;-78
2024/02/13 05:07:36;;;;;;;12.93;5.80;;;3.90;99.90;;;7.02;100.00;100628.41;5023074;28;20076;-77
2024/02/13 05:10:03;;;;;;;12.82;6.03;;;3.90;99.90;;;7.22;100.00;100632.34;5018904;28;20029;-78
2024/02/13 05:12:28;;;;;;;11.15;6.53;;;3.80;99.90;;;7.10;100.00;100629.31;5027711;28;20041;-78
2024/02/13 05:14:55;;;;;;;13.65;7.15;;;3.80;99.90;;;6.99;100.00;100634.22;5020476;28;20033;-75
2024/02/13 05:17:26;;;;;;;15.13;7.63;;;3.80;99.90;;;6.87;100.00;100641.16;5020529;28;20045;-75
2024/02/13 05:19:53;;;;;;;13.43;7.85;;;3.80;99.90;;;7.13;100.00;100637.03;5023430;28;20393;-77
2024/02/13 05:22:19;;;;;;;16.45;8.90;;;3.80;99.90;;;6.73;100.00;100635.63;5022432;28;20053;-76
2024/02/13 05:24:46;;;;;;;19.40;9.13;;;3.80;99.90;;;6.70;100.00;100641.44;5029118;28;20168;-75
2024/02/13 05:27:13;;;;;;;24.17;9.50;;;3.90;99.90;;;6.82;100.00;100647.19;5032191;28;20033;-74
2024/02/13 05:29:41;;;;;;;17.83;10.10;;;3.90;99.90;;;6.96;100.00;100653.59;5030130;28;20630;-75
2024/02/13 05:32:07;;;;;;;25.58;11.82;;;3.90;99.90;;;6.86;100.00;100650.34;5030734;28;20105;-75
2024/02/13 05:34:34;;;;;;;21.75;10.48;;;3.90;99.90;;;6.80;100.00;100651.97;5029958;28;20072;-75
2024/02/13 05:37:05;;;;;;;21.45;11.98;;;3.90;99.90;;;6.76;100.00;100646.09;5029114;28;20037;-74
2024/02/13 05:39:31;;;;;;;21.95;11.43;;;3.90;99.90;;;6.60;100.00;100646.31;5031509;28;20037;-75
2024/02/13 05:41:56;;;;;;;22.83;11.88;;;3.90;99.90;;;6.79;100.00;100654.88;5026748;28;20025;-75
2024/02/13 05:44:24;;;;;;;26.00;13.52;;;3.90;99.90;;;6.82;100.00;100655.34;5036240;28;20037;-75
2024/02/13 05:46:51;;;;;;;23.40;12.75;;;3.90;99.90;;;6.98;100.00;100665.09;5048091;28;20048;-75
2024/02/13 05:49:17;;;;;;;26.00;12.93;;;3.90;99.90;;;6.89;100.00;100655.38;5032447;28;20033;-75
2024/02/13 05:51:45;;;;;;;26.70;14.20;;;3.90;99.90;;;6.99;100.00;100661.34;5032965;28;20397;-75
2024/02/13 05:54:12;;;;;;;25.55;13.43;;;4.00;99.90;;;6.79;100.00;100652.16;5032211;28;20465;-75
2024/02/13 05:56:38;;;;;;;30.47;15.50;;;3.90;99.90;;;6.86;100.00;100648.47;5032205;28;20029;-75
2024/02/13 05:59:05;;;;;;;27.08;15.30;;;4.00;99.90;;;6.89;100.00;100655.38;5032549;28;20290;-74
2024/02/13 06:01:31;;;;;;;29.20;14.30;;;3.90;99.90;;;6.94;100.00;100644.81;5032964;28;20041;-76
2024/02/13 06:04:01;;;;;;;25.45;13.57;;;3.90;99.90;;;6.87;100.00;100657.44;5047281;28;20485;-75
2024/02/13 06:06:27;;;;;;;27.42;14.95;;;3.80;99.90;;;6.73;100.00;100657.31;5028954;28;20412;-74
2024/02/13 06:08:56;;;;;;;25.05;14.52;;;3.90;99.90;;;6.90;100.00;100657.09;5032437;28;20486;-74
2024/02/13 06:11:23;;;;;;;28.95;15.50;;;3.80;99.90;;;6.96;100.00;100661.75;5031859;28;20033;-74
2024/02/13 06:13:49;;;;;;;35.20;17.00;;;3.80;99.90;;;6.99;100.00;100661.34;5032061;28;20079;-74
2024/02/13 06:16:18;;;;;;;27.50;15.10;;;3.80;99.90;;;6.86;100.00;100658.47;5032781;28;20117;-75
2024/02/13 06:18:47;;;;;;;28.20;15.65;;;3.80;99.90;;;6.79;100.00;100660.28;5004265;28;20034;-74
2024/02/13 06:21:15;;;;;;;32.80;15.15;;;3.80;99.90;;;6.72;100.00;100671.91;5032861;28;20107;-74
2024/02/13 06:23:42;;;;;;;25.40;14.60;;;3.80;99.90;;;6.65;100.00;100670.13;5032161;28;20500;-74
2024/02/13 06:26:08;;;;;;;29.48;16.45;;;3.80;99.90;;;7.02;100.00;100681.81;5032357;28;20124;-75
2024/02/13 06:28:34;;;;;;;29.50;15.10;;;3.80;99.90;;;6.84;100.00;100671.38;5032094;28;20034;-75
2024/02/13 06:31:00;;;;;;;28.70;15.95;;;3.70;99.90;;;6.75;100.00;100681.50;5032816;28;20041;-77
2024/02/13 06:33:26;;;;;;;27.23;15.57;;;3.80;99.90;;;6.88;100.00;100689.81;5032910;28;20041;-77
2024/02/13 06:35:51;;;;;;;26.10;14.23;;;3.70;99.90;;;6.76;100.00;100694.88;5032238;28;20033;-77
2024/02/13 06:38:17;;;;;;;26.38;14.68;;;3.70;99.90;;;6.76;100.00;100688.59;5046739;28;20041;-75
2024/02/13 06:40:43;;;;;;;26.77;14.70;;;3.70;99.90;;;6.83;100.00;100694.13;5013445;28;20040;-75
2024/02/13 06:43:09;;;;;;;23.35;14.55;;;3.80;99.90;;;6.99;100.00;100693.91;5032629;28;20619;-75
2024/02/13 06:45:34;;;;;;;22.35;14.73;;;3.80;99.90;;;6.99;100.00;100702.03;5031454;28;20083;-76
2024/02/13 06:48:01;;;;;;;26.83;13.85;;;3.80;99.90;;;6.99;100.00;100710.19;5031197;28;20139;-76
2024/02/13 06:50:27;;;;;;;24.63;13.60;;;3.80;99.90;;;6.85;100.00;100706.47;5031405;28;20120;-76
2024/02/13 06:52:55;;;;;;;22.05;13.55;;;3.80;99.90;;;7.01;100.00;100707.25;5031729;28;20094;-76
2024/02/13 06:55:20;;;;;;;;;;;3.80;99.90;;;6.97;100.00;100706.81;5032556;28;20267;-76
2024/02/13 06:57:46;;;;;;;24.20;12.85;;;3.80;99.90;;;7.00;100.00;100716.44;5031652;28;19995;-76
2024/02/13 07:00:13;;;;;;;24.85;13.48;;;3.80;99.90;;;7.04;100.00;100715.03;5032207;28;20034;-76
2024/02/13 07:02:40;;;;;;;27.92;13.93;;;3.90;99.90;;;6.98;100.00;100718.50;5032134;28;20037;-76
2024/02/13 07:05:08;;;;;;;21.95;13.10;;;3.80;99.90;;;7.01;100.00;100729.81;5025806;28;20037;-76
2024/02/13 07:07:34;;;;;;;24.85;14.35;;;3.90;99.90;;;6.94;100.00;100739.75;5028694;28;20038;-76
2024/02/13 07:10:00;;;;;;;25.90;13.77;;;3.90;99.90;;;7.14;100.00;100734.53;5022908;28;20036;-76
2024/02/13 07:12:26;;;;;;;22.17;13.48;;;3.90;99.90;;;7.15;100.00;100732.66;5011821;28;20072;-76
2024/02/13 07:14:52;;;;;;;25.20;13.98;;;3.90;99.90;;;7.10;100.00;100737.81;5029840;28;20067;-75
2024/02/13 07:17:17;;;;;;;25.27;13.93;;;3.90;99.90;;;7.02;100.00;100746.91;5030254;28;20045;-76
2024/02/13 07:19:44;;;;;;;26.27;13.73;;;4.00;99.90;;;7.15;100.00;100740.78;5030395;28;20030;-76
2024/02/13 07:22:10;;;;;;;23.73;13.48;;;4.00;99.90;;;7.25;100.00;100744.06;5031270;28;20385;-75
2024/02/13 07:24:36;;;;;;;30.98;13.50;;;4.00;99.90;;;7.03;100.00;100744.03;5014014;28;20044;-75
2024/02/13 07:27:05;;;;;;;22.08;12.93;;;4.10;99.90;;;7.12;100.00;100752.03;5031560;28;20542;-76
2024/02/13 07:29:31;;;;;;;21.40;12.50;;;4.10;99.90;;;7.13;100.00;100751.00;5031200;28;20037;-76
2024/02/13 07:32:00;;;;;;;24.38;12.38;;;4.20;99.90;;;7.35;100.00;100746.47;5020499;28;20048;-75
2024/02/13 07:34:27;;;;;;;20.00;11.35;;;4.30;99.90;;;7.59;100.00;100747.09;5031252;28;20041;-76
2024/02/13 07:36:53;;;;;;;22.02;12.02;;;4.40;99.90;;;7.57;100.00;100752.72;5032156;28;20374;-76
2024/02/13 07:39:19;;;;;;;21.38;12.30;;;4.40;99.90;;;7.30;100.00;100755.16;5031505;28;20041;-76
2024/02/13 07:41:45;;;;;;;22.77;12.75;;;4.50;99.90;;;7.36;100.00;100747.28;5006640;28;20065;-76
2024/02/13 07:44:11;;;;;;;26.13;13.07;;;4.60;99.90;;;7.59;100.00;100758.78;5030863;28;20049;-75
2024/02/13 07:46:38;;;;;;;23.40;12.43;;;4.70;99.90;;;7.52;100.00;100757.91;5030777;28;20179;-76
2024/02/13 07:49:04;;;;;;;20.48;11.80;;;4.70;99.90;;;7.61;100.00;100762.16;5031510;28;20503;-76
2024/02/13 07:51:30;;;;;;;20.77;12.82;;;4.80;99.90;;;7.78;100.00;100759.19;5031197;28;20035;-75
2024/02/13 07:53:57;;;;;;;22.10;11.90;;;4.90;99.90;;;7.95;100.00;100759.72;5031388;28;20037;-77
2024/02/13 07:56:28;;;;;;;23.40;12.93;;;5.00;99.90;;;8.14;100.00;100771.78;5031960;28;20440;-76
2024/02/13 07:59:01;;;;;;;22.20;12.02;;;5.10;99.90;;;8.31;100.00;100766.88;5030727;28;20407;-76
2024/02/13 08:01:29;;;;;;;24.42;12.10;;;5.20;99.90;;;8.44;100.00;100768.03;5026539;28;20061;-76
2024/02/13 08:03:55;;;;;;;19.33;11.40;;;5.30;99.90;;;8.48;100.00;100767.41;5045958;28;20489;-77
2024/02/13 08:06:20;;;;;;;21.13;11.95;;;5.40;99.90;;;8.79;100.00;100778.91;5046054;28;20091;-76
2024/02/13 08:08:47;;;;;;;17.88;10.23;;;5.40;99.90;;;8.65;100.00;100779.91;5031189;28;20033;-76
2024/02/13 08:11:14;;;;;;;24.13;11.77;;;5.50;99.90;;;8.86;100.00;100784.38;5012028;28;20037;-77
2024/02/13 08:13:40;;;;;;;20.33;11.15;;;5.60;99.90;;;8.71;100.00;100785.34;5029687;28;20037;-77
2024/02/13 08:16:09;;;;;;;22.35;11.02;;;5.70;99.90;;;8.73;100.00;100775.09;5030589;28;20060;-76
2024/02/13 08:18:34;;;;;;;21.38;10.48;;;5.80;99.90;;;8.96;100.00;100775.84;5030977;28;20041;-76
2024/02/13 08:21:04;;;;;;;17.85;10.55;;;5.90;99.90;;;8.60;100.00;100770.44;5030532;28;20095;-76
2024/02/13 08:23:30;;;;;;;20.70;10.20;;;5.80;99.90;;;9.02;100.00;100769.59;5031544;28;20044;-77
2024/02/13 08:25:55;;;;;;;19.15;9.90;;;5.90;99.90;;;8.71;100.00;100771.75;5030413;28;20481;-76
2024/02/13 08:28:22;;;;;;;17.48;9.15;;;6.00;99.90;;;8.77;100.00;100770.97;5010601;28;20120;-77
2024/02/13 08:30:48;;;;;;;19.30;9.45;;;6.00;99.90;;;8.80;100.00;100772.44;5029818;28;20033;-77
2024/02/13 08:33:15;;;;;;;19.63;9.63;;;6.00;99.90;;;8.88;100.00;100774.13;5029866;28;20048;-76
2024/02/13 08:35:42;;;;;;;17.42;9.65;;;6.10;99.90;;;8.84;100.00;100779.13;5029684;28;20056;-76
2024/02/13 08:38:08;;;;;;;19.65;9.60;;;6.10;99.90;;;9.23;100.00;100784.94;5030424;28;20303;-77
2024/02/13 08:40:35;;;;;;;17.05;9.10;;;6.20;99.90;;;9.30;100.00;100788.53;5030600;28;20470;-77
2024/02/13 08:43:01;;;;;;;16.45;9.13;;;6.20;99.90;;;9.53;100.00;100779.16;5030422;28;20396;-77
2024/02/13 08:45:27;;;;;;;17.05;8.55;;;6.30;99.90;;;8.98;100.00;100782.75;5030809;28;20489;-76
2024/02/13 08:47:54;;;;;;;16.30;8.35;;;6.30;99.90;;;9.26;100.00;100781.81;5022674;28;20093;-76
2024/02/13 08:50:20;;;;;;;16.33;8.45;;;6.40;99.90;;;9.43;100.00;100795.06;5029575;28;20049;-76
2024/02/13 08:52:46;;;;;;;12.43;7.95;;;6.40;99.90;;;9.19;100.00;100789.13;5028908;28;20584;-77
2024/02/13 08:55:13;;;;;;;15.77;8.13;;;6.40;99.90;;;9.34;100.00;100788.97;4997809;28;20033;-76
2024/02/13 08:57:39;;;;;;;15.95;8.70;;;6.50;99.90;;;9.14;100.00;100797.88;5023958;28;20060;-76
2024/02/13 09:00:14;;;;;;;14.65;7.93;;;6.50;99.90;;;9.60;100.00;100798.22;5029711;28;20041;-77
2024/02/13 09:02:40;;;;;;;16.90;8.35;;;6.60;99.90;;;9.62;100.00;100798.84;5028871;28;20042;-76
2024/02/13 09:05:07;;;;;;;16.70;8.52;;;6.60;99.90;;;9.41;100.00;100805.31;5030470;28;20056;-76
2024/02/13 09:07:32;;;;;;;17.58;8.27;;;6.60;99.90;;;9.49;100.00;100805.97;5029684;28;20041;-76
2024/02/13 09:09:58;;;;;;;16.30;8.32;;;6.60;99.90;;;9.57;100.00;100804.09;5030110;28;20033;-77
2024/02/13 09:12:25;;;;;;;19.08;7.95;;;6.60;99.90;;;9.74;100.00;100797.22;5030235;28;20405;-79
2024/02/13 09:14:51;;;;;;;14.20;7.82;;;6.60;99.90;;;9.65;100.00;100809.34;5031253;28;20120;-79
2024/02/13 09:17:16;;;;;;;14.93;7.97;;;6.70;99.90;;;9.48;100.00;100822.50;5031874;28;20141;-78
2024/02/13 09:19:43;;;;;;;17.63;7.68;;;6.70;99.90;;;9.42;100.00;100826.06;5030201;28;20041;-79
2024/02/13 09:22:09;;;;;;;14.77;6.97;;;6.80;99.90;;;9.78;100.00;100817.56;5030504;28;20035;-80
2024/02/13 09:24:36;;;;;;;11.52;7.22;;;6.80;99.90;;;9.62;100.00;100826.97;5029584;28;20033;-78
2024/02/13 09:27:03;;;;;;;12.50;7.07;;;6.80;99.90;;;9.92;100.00;100820.28;5025442;28;20030;-78
2024/02/13 09:29:29;;;;;;;12.15;6.78;;;6.80;99.90;;;10.18;100.00;100826.78;5028775;28;20129;-79
2024/02/13 09:31:55;;;;;;;16.77;6.90;;;6.90;99.90;;;9.89;100.00;100837.91;5029979;28;20033;-79
2024/02/13 09:34:20;;;;;;;11.65;6.57;;;7.00;99.90;;;9.43;100.00;100834.03;5028865;28;20037;-79
2024/02/13 09:36:47;;;;;;;13.90;6.45;;;6.90;99.90;;;10.22;100.00;100833.53;5029516;28;20401;-79
2024/02/13 09:39:14;;;;;;;14.45;6.63;;;7.20;99.90;;;10.29;100.00;100826.19;5030723;28;20116;-80
2024/02/13 09:41:40;;;;;;;13.00;7.25;;;7.20;99.90;;;9.77;100.00;100834.09;5012647;28;20040;-80
2024/02/13 09:44:12;;;;;;;10.13;5.93;;;7.20;99.90;;;10.08;100.00;100832.69;5028497;28;20021;-78
2024/02/13 09:46:41;;;;;;;14.82;7.22;;;7.10;99.90;;;10.42;100.00;100824.50;5029667;28;20398;-79
2024/02/13 09:49:13;;;;;;;11.05;6.60;;;7.20;99.90;;;9.99;100.00;100833.91;5029738;28;20363;-78
2024/02/13 09:51:40;;;;;;;13.75;6.85;;;7.20;99.90;;;9.89;100.00;100832.44;5028878;28;20120;-77
2024/02/13 09:54:09;;;;;;;12.43;7.03;;;7.30;99.90;;;10.28;100.00;100835.41;5025426;28;20478;-77
2024/02/13 09:56:35;;;;;;;13.25;7.25;;;7.40;99.90;;;10.18;100.00;100832.25;5029433;28;20065;-78
2024/02/13 09:59:03;;;;;;;10.65;6.55;;;7.30;99.90;;;10.36;99.16;100846.09;5028050;28;20042;-77
2024/02/13 10:01:31;;;;;;;11.77;6.68;;;7.40;99.90;;;10.22;100.00;100847.16;5029361;28;20788;-77
2024/02/13 10:03:57;;;;;;;13.32;6.55;;;7.40;99.90;;;10.18;100.00;100844.00;5029124;28;20049;-77
2024/02/13 10:06:24;;;;;;;11.32;6.30;;;7.50;99.90;;;10.35;99.89;100841.69;5029427;28;20362;-79
2024/02/13 10:08:53;;;;;;;13.43;7.43;;;;;;;10.70;100.00;100846.09;5029307;28;20041;-80
2024/02/13 10:11:36;;;;;;;10.18;6.28;;;;;;;11.26;95.80;100856.63;5030118;28;20115;-79
2024/02/13 10:14:03;;;;;;;11.20;5.93;;;;;;;11.29;90.28;100840.66;5034006;28;20112;-77